Historyczne dane pomiarowe

Dodano dane terminowe – wersja testowa.

Dane z okresu 1951-2019

Wersja bazy: 1.34 [2019-03-16, lista zmian], aktualizacja planowana na 2019-04-15

Dane meteo z obszaru Polski uzyskane na podstawie danych udostępnionych przez Instytut Meteorologii i Gospodarki Wodnej – Państwowy Instytut Badawczy.

 

Wybierz Datę:    

       

TemperaturaWilgotnośćWiatrCiśnienieOpadyŚniegCzas trwania zjawisk
 Stacja t tx tn tng RH VA  wxwx mslp ppp RRR   cm mm wxwxwxwxwxwxwx
1956-11-09 -2.5 0.6 -5.0- 73.3- 1.7 5.3---- 0.0-- 5---------
1956-11-08 -1.2 2.0 -4.2- 90.0- 1.7 2.0---- 0.0-- 5---------
1956-11-07 0.0 1.0 -0.5-100.0- 8.0 0.7---- 4.0-- 3---------
1956-11-06 1.2 4.4 -0.3- 93.0- 7.7 8.7---- 7.2------------
1956-11-05 4.4 7.2 1.8- 91.5- 5.3 7.3---- 1.3------------
1956-11-04 1.5 4.9 -2.3- 81.8- 4.3 2.0---- 0.2------------
1956-11-03 -0.3 2.5 -1.3- 95.3- 5.3 0.7---- 0.0------------
1956-11-02 0.2 1.0 -1.3- 93.0- 5.7 1.0---- 0.3------------
1956-11-01 -1.5 2.4 -8.2- 82.0- 0.0 2.0---- 0.6------------
1956-10-31 -4.8 1.0 -6.4- 86.8- 2.3 3.7---- 0.0------------
1956-10-30 2.7 5.4 0.6- 98.0- 8.0 4.0---- 0.6------------
1956-10-29 4.5 8.7 3.8- 97.8- 8.0 3.7---- 19.3------------
1956-10-28 8.6 9.4 7.4-100.0- 8.0 3.0---- 25.4------------
1956-10-27 7.6 9.4 5.2-100.0- 8.0 3.0---- 11.5------------
1956-10-26 6.1 10.9 5.5- 99.0- 8.0 1.7---- 12.1------------
1956-10-25 11.4 14.7 9.7- 85.5- 7.7 3.3---- 14.9------------
1956-10-24 12.5 18.3 7.9- 71.5- 2.0 4.7---- 0.0------------
1956-10-23 10.2 14.6 8.8- 87.3- 4.0 3.0---- 0.0------------
1956-10-22 11.3 16.0 6.8- 90.8- 0.0 2.7---- 0.0------------
1956-10-21 12.6 17.7 9.5- 87.8- 2.0 1.3---- 0.0------------
1956-10-20 11.3 15.1 6.8- 89.8- 6.0 1.7---- 0.0------------
1956-10-19 11.0 14.4 8.9- 97.3- 6.7 3.7---- 0.2------------
1956-10-18 11.8 13.2 7.6- 93.8- 8.0 3.3---- 9.2------------
1956-10-17 9.1 16.5 3.8- 75.3- 2.0 0.7---- 0.0------------
1956-10-16 7.4 12.9 1.9- 76.5- 0.0 1.3---- 0.0------------
1956-10-15 6.2 12.6 2.4- 85.3- 0.3 0.7---- 0.0------------
1956-10-14 9.2 13.9 5.3- 84.0- 5.7 9.3---- 2.4------------
1956-10-13 10.7 13.1 7.5- 79.0- 7.3 11.7---- 0.0------------
1956-10-12 9.3 14.3 6.4- 85.3- 4.3 4.3---- 0.0------------
1956-10-11 7.1 12.0 -0.4- 75.3- 1.0 2.7---- 0.0------------
1956-10-10 4.7 9.5 1.3- 83.5- 0.0 0.7---- 0.0------------
1956-10-09 7.0 8.4 3.3- 97.8- 8.0 3.7---- 1.2------------
1956-10-08 4.1 9.4 0.2- 83.8- 1.3 2.0---- 0.0------------
1956-10-07 6.0 9.5 4.2- 84.8- 4.0 7.7---- 1.4------------
1956-10-06 5.7 9.4 4.8- 91.3- 8.0 5.0---- 0.0------------
1956-10-05 9.5 18.7 7.8- 83.5- 6.7 0.7---- 3.4------------
1956-10-04 11.6 14.9 9.4- 84.8- 4.3 2.0---- 4.0------------
1956-10-03 14.4 19.6 10.6- 79.5- 4.0 4.3---- 0.4------------
1956-10-02 19.0 25.8 12.7- 67.5- 2.0 5.0---- 0.0------------
1956-10-01 18.2 24.6 12.4- 76.3- 1.7 1.7---- 0.0------------
1956-09-30 14.7 19.7 9.4- 74.3- 3.0 2.7---- 0.0------------
1956-09-29 16.0 19.9 13.5- 83.3- 8.0 3.0---- 0.0------------
1956-09-28 15.5 19.1 12.4- 76.8- 8.0 6.0---- 0.0------------
1956-09-27 16.4 22.5 12.7- 75.8- 1.3 2.0---- 0.1------------
1956-09-26 16.6 23.7 9.4- 53.8- 0.0 4.0---- 0.0------------
1956-09-25 13.8 23.1 4.8- 69.3- 0.0 3.3---- 0.0------------
1956-09-24 10.9 17.9 5.4- 71.3- 0.0 5.0---- 0.0------------
1956-09-23 12.9 20.2 7.0- 80.3- 0.0 3.3---- 0.0------------
1956-09-22 13.0 21.6 6.9- 81.0- 0.0 2.7---- 0.0------------
1956-09-21 12.8 18.8 7.6- 76.5- 0.0 0.0---- 0.0------------
1956-09-20 12.0 17.9 6.4- 70.3- 0.7 3.0---- 0.0------------
1956-09-19 10.6 15.9 5.9- 70.5- 1.0 1.7---- 0.0------------
1956-09-18 9.1 14.6 5.5- 85.5- 4.0 1.0---- 0.0------------
1956-09-17 8.7 11.3 7.3- 99.0- 5.3 5.3---- 12.7------------
1956-09-16 10.2 16.4 4.1- 84.5- 1.0 2.7---- 3.0------------
1956-09-15 9.7 15.5 6.4- 90.0- 4.7 2.3---- 0.0------------
1956-09-14 11.0 16.1 6.4- 81.3- 4.0 2.7---- 0.0------------
1956-09-13 9.4 14.7 7.1- 89.3- 6.3 5.0---- 2.1------------
1956-09-12 10.6 15.5 7.9- 85.5- 4.3 6.0---- 1.9------------
1956-09-11 15.6 17.9 14.4- 92.3- 7.0 4.0---- 5.4------------
255.8 ms

 

Źródłem pochodzenia danych jest Instytut Meteorologii i Gospodarki Wodnej – Państwowy Instytut Badawczy. Dane Instytutu Meteorologii i Gospodarki Wodnej – Państwowego Instytutu Badawczego zostały przetworzone.

Dane źródłowe można odnaleźć na stronie https://dane.imgw.pl